createdAt,value
2019-02-05T00:01:41.276Z,34.73
2019-02-05T00:06:44.056Z,35.63
2019-02-05T00:11:46.896Z,28.50
2019-02-05T00:16:49.576Z,21.47
2019-02-05T00:21:52.368Z,17.70
2019-02-05T00:26:55.177Z,11.93
2019-02-05T00:31:57.996Z,11.00
2019-02-05T00:37:00.797Z,12.50
2019-02-05T00:42:03.776Z,8.87
2019-02-05T00:47:06.619Z,9.43
2019-02-05T00:52:09.383Z,12.33
2019-02-05T00:57:12.003Z,10.13
2019-02-05T01:02:14.957Z,8.00
2019-02-05T01:07:17.779Z,9.10
2019-02-05T01:12:21.579Z,9.13
2019-02-05T01:17:24.288Z,6.80
2019-02-05T01:22:27.073Z,9.37
2019-02-05T01:27:29.614Z,8.73
2019-02-05T01:32:32.199Z,9.47
2019-02-05T01:37:34.714Z,14.93
2019-02-05T01:42:37.408Z,7.90
2019-02-05T01:47:40.285Z,10.13
2019-02-05T01:52:43.035Z,9.40
2019-02-05T01:57:46.117Z,10.70
2019-02-05T02:02:49.228Z,7.67
2019-02-05T02:07:52.094Z,11.03
2019-02-05T02:12:55.363Z,11.63
2019-02-05T02:17:58.178Z,8.10
2019-02-05T02:23:01.258Z,5.90
2019-02-05T02:28:04.400Z,4.77
2019-02-05T02:33:07.469Z,8.40
2019-02-05T02:38:10.655Z,6.13
2019-02-05T02:43:13.296Z,5.90
2019-02-05T02:48:16.024Z,10.03
2019-02-05T02:53:18.711Z,7.77
2019-02-05T02:58:21.541Z,10.07
2019-02-05T03:03:24.685Z,10.27
2019-02-05T03:08:27.476Z,7.33
2019-02-05T03:13:30.473Z,13.13
2019-02-05T03:18:33.184Z,11.97
2019-02-05T03:23:35.977Z,11.67
2019-02-05T03:28:38.689Z,4.53
2019-02-05T03:33:41.342Z,7.47
2019-02-05T03:38:44.004Z,10.37
2019-02-05T03:43:46.755Z,9.27
2019-02-05T03:48:50.412Z,11.77
2019-02-05T03:54:02.440Z,11.20
2019-02-05T03:59:17.403Z,14.03
2019-02-05T04:04:38.188Z,126.07
2019-02-05T04:09:58.232Z,119.73
2019-02-05T04:15:16.328Z,217.43
2019-02-05T04:20:35.285Z,171.03
2019-02-05T04:25:50.797Z,150.33
2019-02-05T04:31:08.317Z,125.27
2019-02-05T04:36:29.253Z,125.40
2019-02-05T04:41:50.260Z,53.57
2019-02-05T04:47:07.433Z,46.73
2019-02-05T04:52:22.272Z,41.93
2019-02-05T04:57:40.335Z,80.43
2019-02-05T05:02:58.163Z,44.87
2019-02-05T05:08:14.368Z,52.27
2019-02-05T05:13:17.086Z,33.17
2019-02-05T05:18:19.811Z,86.00
2019-02-05T05:23:22.924Z,10.77
2019-02-05T05:28:25.783Z,133.17
2019-02-05T05:33:28.836Z,64.60
2019-02-05T05:38:31.701Z,57.47
2019-02-05T05:43:34.457Z,104.80
2019-02-05T05:48:37.293Z,163.40
2019-02-05T05:53:40.033Z,145.73
2019-02-05T05:58:42.751Z,279.07
2019-02-05T06:03:45.524Z,241.07
2019-02-05T06:08:48.176Z,238.87
2019-02-05T06:13:51.222Z,269.47
2019-02-05T06:18:54.114Z,181.20
2019-02-05T06:23:57.036Z,215.60
2019-02-05T06:28:59.673Z,222.97
2019-02-05T06:34:02.807Z,144.23
2019-02-05T06:39:08.599Z,154.87
2019-02-05T06:44:11.503Z,62.80
2019-02-05T06:49:14.328Z,111.43
2019-02-05T06:54:17.578Z,68.83
2019-02-05T06:59:20.239Z,53.63
2019-02-05T07:04:22.913Z,33.67
2019-02-05T07:09:25.679Z,38.93
2019-02-05T07:14:28.555Z,31.37
2019-02-05T07:19:31.687Z,20.97
2019-02-05T07:24:34.722Z,30.87
2019-02-05T07:29:37.613Z,36.17
2019-02-05T07:34:40.610Z,9.80
2019-02-05T07:39:43.408Z,24.10
2019-02-05T07:44:46.353Z,35.67
2019-02-05T07:49:49.403Z,34.13
2019-02-05T07:54:52.122Z,41.90
2019-02-05T07:59:54.776Z,68.27
2019-02-05T08:05:00.721Z,10.67
2019-02-05T08:10:05.081Z,20.03
2019-02-05T08:15:12.640Z,32.10
2019-02-05T08:20:15.942Z,9.73
2019-02-05T08:25:18.697Z,17.23
2019-02-05T08:30:24.473Z,38.90
2019-02-05T08:35:27.233Z,8.13
2019-02-05T08:40:30.094Z,9.67
2019-02-05T08:45:33.523Z,17.03
2019-02-05T08:50:36.595Z,11.10
2019-02-05T08:55:39.257Z,17.90
2019-02-05T09:00:42.804Z,15.57
2019-02-05T09:05:45.506Z,26.70
2019-02-05T09:15:58.216Z,13.27
2019-02-05T09:21:01.782Z,13.93
2019-02-05T09:26:04.541Z,8.03
2019-02-05T09:31:07.316Z,47.70
2019-02-05T09:36:10.150Z,42.50
2019-02-05T09:41:13.393Z,11.33
2019-02-05T09:46:16.087Z,6.97
2019-02-05T09:51:18.911Z,27.53
2019-02-05T09:56:21.719Z,39.83
2019-02-05T10:01:24.473Z,50.97
2019-02-05T10:06:27.272Z,35.87
2019-02-05T10:11:30.332Z,25.13
2019-02-05T10:16:33.194Z,28.13
2019-02-05T10:21:36.172Z,20.90
2019-02-05T10:26:38.915Z,12.77
2019-02-05T10:31:41.852Z,2.10
2019-02-05T10:36:45.014Z,12.57
2019-02-05T10:41:47.814Z,14.30
2019-02-05T10:46:52.934Z,12.17
2019-02-05T10:51:55.894Z,16.00
2019-02-05T10:56:59.015Z,11.37
2019-02-05T11:02:01.934Z,22.80
2019-02-05T11:07:05.432Z,11.70
2019-02-05T11:12:10.904Z,21.63
2019-02-05T11:17:14.017Z,8.17
2019-02-05T11:22:16.867Z,9.93
2019-02-05T11:27:19.530Z,7.60
2019-02-05T11:32:22.512Z,8.13
2019-02-05T11:37:25.427Z,22.93
2019-02-05T11:42:28.230Z,14.07
2019-02-05T11:47:31.059Z,9.93
2019-02-05T11:52:33.817Z,7.37
2019-02-05T11:57:36.624Z,11.87
2019-02-05T12:02:39.497Z,45.10
2019-02-05T12:07:42.303Z,9.87
2019-02-05T12:12:45.210Z,19.37
2019-02-05T12:17:47.912Z,11.70
2019-02-05T12:22:51.713Z,29.27
2019-02-05T12:27:54.740Z,21.57
2019-02-05T12:32:58.088Z,25.37
2019-02-05T12:38:01.177Z,10.83
2019-02-05T12:43:04.943Z,11.00
2019-02-05T12:48:08.074Z,3.53
2019-02-05T12:53:10.992Z,20.93
2019-02-05T12:58:13.732Z,17.03
2019-02-05T13:03:16.990Z,50.20
2019-02-05T13:08:20.284Z,10.77
2019-02-05T13:13:23.183Z,13.43
2019-02-05T13:18:26.137Z,30.60
2019-02-05T13:23:29.242Z,40.10
2019-02-05T13:28:32.029Z,21.37
2019-02-05T13:33:35.453Z,26.23
2019-02-05T13:38:38.184Z,12.87
2019-02-05T13:43:40.938Z,10.47
2019-02-05T13:48:43.739Z,10.17
2019-02-05T13:53:46.442Z,25.83
2019-02-05T13:58:49.838Z,11.70
2019-02-05T14:03:53.370Z,19.37
2019-02-05T14:08:56.557Z,35.33
2019-02-05T14:13:59.265Z,41.07
2019-02-05T14:19:01.868Z,19.07
2019-02-05T14:24:05.510Z,26.93
2019-02-05T14:29:08.385Z,19.13
2019-02-05T14:34:11.077Z,13.90
2019-02-05T14:39:13.724Z,8.90
2019-02-05T14:44:16.727Z,17.87
2019-02-05T14:49:19.687Z,8.70
2019-02-05T14:54:22.266Z,6.67
2019-02-05T14:59:24.995Z,7.43
2019-02-05T15:04:27.768Z,4.73
2019-02-05T15:09:30.563Z,6.23
2019-02-05T15:14:33.162Z,11.30
2019-02-05T15:19:35.931Z,17.53
2019-02-05T15:24:41.014Z,6.80
2019-02-05T15:29:44.057Z,16.13
2019-02-05T15:34:46.799Z,16.07
2019-02-05T15:39:49.401Z,11.23
2019-02-05T15:44:52.066Z,16.73
2019-02-05T15:50:05.614Z,8.40
2019-02-05T15:54:59.295Z,10.43
2019-02-05T16:00:02.350Z,7.10
2019-02-05T16:05:06.749Z,10.70
2019-02-05T16:10:12.561Z,11.53
2019-02-05T16:15:15.536Z,5.53
2019-02-05T16:20:18.638Z,5.83
2019-02-05T16:25:21.458Z,3.87
2019-02-05T16:30:24.398Z,2.50
2019-02-05T16:35:27.295Z,1.23
2019-02-05T16:40:30.594Z,8.73
2019-02-05T16:45:33.558Z,3.43
2019-02-05T16:50:39.105Z,6.00
2019-02-05T16:55:42.198Z,2.10
2019-02-05T17:00:44.838Z,4.37
2019-02-05T17:05:47.737Z,3.00
2019-02-05T17:10:50.568Z,3.80
2019-02-05T17:15:53.477Z,10.60
2019-02-05T17:20:56.275Z,10.63
2019-02-05T17:25:59.056Z,3.00
2019-02-05T17:31:01.836Z,7.80
2019-02-05T17:36:05.081Z,11.70
2019-02-05T17:41:08.016Z,8.83
2019-02-05T17:46:10.939Z,5.13
2019-02-05T17:51:13.708Z,4.30
2019-02-05T17:56:16.636Z,6.40
2019-02-05T18:01:20.496Z,11.40
2019-02-05T18:06:23.465Z,2.20
2019-02-05T18:11:26.318Z,5.13
2019-02-05T18:16:29.164Z,7.70
2019-02-05T18:21:32.176Z,17.70
2019-02-05T18:26:35.798Z,10.07
2019-02-05T18:31:38.635Z,1.70
2019-02-05T18:36:41.518Z,7.50
2019-02-05T18:41:44.179Z,2.00
2019-02-05T18:46:46.876Z,1.40
2019-02-05T18:51:49.786Z,6.93
2019-02-05T18:56:52.516Z,51.37
2019-02-05T19:01:55.162Z,28.13
2019-02-05T19:06:57.958Z,43.53
2019-02-05T19:12:04.398Z,43.90
2019-02-05T19:17:05.676Z,60.27
2019-02-05T19:22:08.456Z,121.77
2019-02-05T19:27:11.255Z,198.37
2019-02-05T19:32:16.345Z,259.40
2019-02-05T19:37:19.301Z,124.03
2019-02-05T19:42:22.055Z,80.73
2019-02-05T19:47:29.510Z,40.87
2019-02-05T19:52:32.477Z,32.93
2019-02-05T19:57:35.395Z,29.63
2019-02-05T20:02:38.484Z,22.77
2019-02-05T20:07:41.299Z,23.43
2019-02-05T20:12:44.715Z,20.07
2019-02-05T20:17:47.576Z,18.70
2019-02-05T20:22:50.340Z,21.67
2019-02-05T20:27:53.137Z,20.13
2019-02-05T20:32:55.957Z,16.73
2019-02-05T20:37:58.657Z,20.37
2019-02-05T20:43:01.639Z,20.97
2019-02-05T20:48:05.342Z,19.80
2019-02-05T20:53:14.064Z,25.47
2019-02-05T20:58:14.482Z,19.83
2019-02-05T21:03:17.475Z,18.80
2019-02-05T21:08:20.275Z,24.63
2019-02-05T21:13:23.021Z,21.00
2019-02-05T21:18:25.956Z,20.67
2019-02-05T21:23:28.805Z,17.40
2019-02-05T21:28:31.675Z,20.37
2019-02-05T21:33:34.541Z,16.10
2019-02-05T21:38:37.416Z,15.03
2019-02-05T21:43:40.161Z,21.07
2019-02-05T21:48:43.154Z,17.03
2019-02-05T21:53:46.123Z,20.77
2019-02-05T21:58:49.180Z,23.17
2019-02-05T22:03:52.134Z,23.70
2019-02-05T22:08:55.106Z,22.30
2019-02-05T22:13:57.999Z,16.83
2019-02-05T22:19:00.855Z,24.60
2019-02-05T22:24:04.298Z,26.13
2019-02-05T22:29:07.235Z,24.10
2019-02-05T22:34:10.015Z,31.03
2019-02-05T22:39:12.958Z,29.57
2019-02-05T22:44:16.017Z,29.50
2019-02-05T22:49:19.215Z,35.50
2019-02-05T22:54:22.418Z,27.03
2019-02-05T22:59:25.255Z,27.73
2019-02-05T23:04:50.137Z,23.77
2019-02-05T23:09:56.597Z,25.20
2019-02-05T23:15:06.113Z,19.67
2019-02-05T23:20:12.410Z,32.30
2019-02-05T23:25:15.096Z,25.67
2019-02-05T23:30:23.955Z,31.07
2019-02-05T23:35:26.545Z,22.57
2019-02-05T23:40:28.991Z,34.77
2019-02-05T23:45:31.464Z,19.90
2019-02-05T23:50:33.941Z,23.00
2019-02-05T23:55:36.405Z,29.70
